createdAt,value
2019-03-25T00:01:49.388Z,4.25
2019-03-25T00:04:23.249Z,4.16
2019-03-25T00:06:57.769Z,4.07
2019-03-25T00:09:31.629Z,4.01
2019-03-25T00:12:08.047Z,3.96
2019-03-25T00:14:42.905Z,3.88
2019-03-25T00:17:16.770Z,3.85
2019-03-25T00:19:51.667Z,3.82
2019-03-25T00:22:25.655Z,3.79
2019-03-25T00:24:59.415Z,3.75
2019-03-25T00:27:33.651Z,3.73
2019-03-25T00:30:09.880Z,3.70
2019-03-25T00:32:46.185Z,3.64
2019-03-25T00:35:20.026Z,3.51
2019-03-25T00:37:54.010Z,3.42
2019-03-25T00:40:27.888Z,3.42
2019-03-25T00:43:01.760Z,3.42
2019-03-25T00:45:35.706Z,3.38
2019-03-25T00:48:09.594Z,3.29
2019-03-25T00:50:43.444Z,3.23
2019-03-25T00:53:17.363Z,3.28
2019-03-25T00:55:51.258Z,3.28
2019-03-25T00:58:25.010Z,3.28
2019-03-25T01:00:58.765Z,3.31
2019-03-25T01:03:33.213Z,3.32
2019-03-25T01:06:09.187Z,3.31
2019-03-25T01:08:43.234Z,3.30
2019-03-25T01:11:18.594Z,3.19
2019-03-25T01:13:56.016Z,3.11
2019-03-25T01:16:30.055Z,2.99
2019-03-25T01:19:03.896Z,2.97
2019-03-25T01:21:38.119Z,2.94
2019-03-25T01:24:12.407Z,2.89
2019-03-25T01:26:47.324Z,2.84
2019-03-25T01:29:21.662Z,2.88
2019-03-25T01:31:55.464Z,2.89
2019-03-25T01:34:29.273Z,2.89
2019-03-25T01:37:02.963Z,2.94
2019-03-25T01:39:36.674Z,2.97
2019-03-25T01:42:12.694Z,3.04
2019-03-25T01:44:47.169Z,3.09
2019-03-25T01:47:20.926Z,3.16
2019-03-25T01:49:54.681Z,3.21
2019-03-25T01:52:28.457Z,3.24
2019-03-25T01:55:13.081Z,3.31
2019-03-25T01:57:37.640Z,3.36
2019-03-25T02:00:12.847Z,3.40
2019-03-25T02:02:48.519Z,3.46
2019-03-25T02:05:22.371Z,3.49
2019-03-25T02:07:56.203Z,3.50
2019-03-25T02:10:29.925Z,3.51
2019-03-25T02:13:03.763Z,3.52
2019-03-25T02:15:38.440Z,3.50
2019-03-25T02:18:13.297Z,3.42
2019-03-25T02:20:47.165Z,3.41
2019-03-25T02:23:22.052Z,3.29
2019-03-25T02:25:55.966Z,3.24
2019-03-25T02:28:30.131Z,3.21
2019-03-25T02:31:05.959Z,3.20
2019-03-25T02:33:39.899Z,3.19
2019-03-25T02:36:13.872Z,3.17
2019-03-25T02:38:47.767Z,3.19
2019-03-25T02:41:22.646Z,3.18
2019-03-25T02:43:56.315Z,3.14
2019-03-25T02:46:30.031Z,3.16
2019-03-25T02:49:04.028Z,3.11
2019-03-25T02:51:37.823Z,3.11
2019-03-25T02:54:11.988Z,3.12
2019-03-25T02:56:45.815Z,3.10
2019-03-25T02:59:20.527Z,3.04
2019-03-25T03:01:54.253Z,2.99
2019-03-25T03:04:30.851Z,2.97
2019-03-25T03:07:04.624Z,2.83
2019-03-25T03:09:40.569Z,2.79
2019-03-25T03:12:15.450Z,2.77
2019-03-25T03:14:53.520Z,2.74
2019-03-25T03:17:27.509Z,2.74
2019-03-25T03:20:02.358Z,2.70
2019-03-25T03:22:36.530Z,2.64
2019-03-25T03:25:13.882Z,2.57
2019-03-25T03:27:47.901Z,2.58
2019-03-25T03:30:26.335Z,2.52
2019-03-25T03:33:00.226Z,2.48
2019-03-25T03:35:34.320Z,2.45
2019-03-25T03:38:08.293Z,2.44
2019-03-25T03:40:42.031Z,2.41
2019-03-25T03:43:15.983Z,2.37
2019-03-25T03:45:49.848Z,2.36
2019-03-25T03:48:24.979Z,2.35
2019-03-25T03:51:00.390Z,2.33
2019-03-25T03:53:35.167Z,2.36
2019-03-25T03:56:13.563Z,2.35
2019-03-25T03:58:46.143Z,2.34
2019-03-25T04:01:20.036Z,2.29
2019-03-25T04:03:53.881Z,2.24
2019-03-25T04:06:27.908Z,2.21
2019-03-25T04:09:01.834Z,2.24
2019-03-25T04:11:36.708Z,2.24
2019-03-25T04:14:10.399Z,2.25
2019-03-25T04:16:45.068Z,2.22
2019-03-25T04:19:21.207Z,2.20
2019-03-25T04:21:57.106Z,2.19
2019-03-25T04:24:33.068Z,2.15
2019-03-25T04:27:06.752Z,2.14
2019-03-25T04:29:40.429Z,2.09
2019-03-25T04:32:14.560Z,2.04
2019-03-25T04:34:48.444Z,2.04
2019-03-25T04:37:22.179Z,2.06
2019-03-25T04:39:55.862Z,2.04
2019-03-25T04:42:29.644Z,2.02
2019-03-25T04:45:03.438Z,2.05
2019-03-25T04:47:37.191Z,2.09
2019-03-25T04:50:10.999Z,2.14
2019-03-25T04:52:44.738Z,2.17
2019-03-25T04:55:18.914Z,2.16
2019-03-25T04:57:52.717Z,2.11
2019-03-25T05:00:37.721Z,2.18
2019-03-25T05:03:13.181Z,2.25
2019-03-25T05:05:46.896Z,2.32
2019-03-25T05:08:20.537Z,2.41
2019-03-25T05:10:54.260Z,2.51
2019-03-25T05:13:27.797Z,2.60
2019-03-25T05:16:01.335Z,2.66
2019-03-25T05:18:36.138Z,2.76
2019-03-25T05:21:09.973Z,2.76
2019-03-25T05:23:44.868Z,2.82
2019-03-25T05:26:23.177Z,2.89
2019-03-25T05:28:57.626Z,2.90
2019-03-25T05:31:32.735Z,2.91
2019-03-25T05:34:20.511Z,2.96
2019-03-25T05:36:47.810Z,2.92
2019-03-25T05:39:23.214Z,2.93
2019-03-25T05:42:13.306Z,2.95
2019-03-25T05:44:53.156Z,2.96
2019-03-25T05:47:26.848Z,3.10
2019-03-25T05:50:02.639Z,3.19
2019-03-25T05:52:36.412Z,3.21
2019-03-25T05:55:10.273Z,3.28
2019-03-25T05:57:44.020Z,3.29
2019-03-25T06:00:19.757Z,3.31
2019-03-25T06:02:59.867Z,3.37
2019-03-25T06:05:35.114Z,3.45
2019-03-25T06:08:08.855Z,3.52
2019-03-25T06:10:42.654Z,3.56
2019-03-25T06:13:17.113Z,3.58
2019-03-25T06:15:50.732Z,3.72
2019-03-25T06:18:24.551Z,3.89
2019-03-25T06:20:58.586Z,3.97
2019-03-25T06:23:32.534Z,4.01
2019-03-25T06:26:06.159Z,4.10
2019-03-25T06:28:41.281Z,4.17
2019-03-25T06:31:17.585Z,4.25
2019-03-25T06:33:51.379Z,4.33
2019-03-25T06:36:25.076Z,4.40
2019-03-25T06:38:59.433Z,4.48
2019-03-25T06:41:34.038Z,4.44
2019-03-25T06:44:08.041Z,4.50
2019-03-25T06:46:41.742Z,4.53
2019-03-25T06:49:15.380Z,4.61
2019-03-25T06:51:49.188Z,4.68
2019-03-25T06:54:25.545Z,4.78
2019-03-25T06:56:59.279Z,4.92
2019-03-25T06:59:35.646Z,5.04
2019-03-25T07:02:11.114Z,5.17
2019-03-25T07:04:45.015Z,5.23
2019-03-25T07:07:18.726Z,5.30
2019-03-25T07:09:53.781Z,5.37
2019-03-25T07:12:27.541Z,5.46
2019-03-25T07:15:01.281Z,5.56
2019-03-25T07:17:34.993Z,5.53
2019-03-25T07:20:12.077Z,5.52
2019-03-25T07:22:45.944Z,5.56
2019-03-25T07:25:21.301Z,5.59
2019-03-25T07:27:55.083Z,5.60
2019-03-25T07:30:29.043Z,5.58
2019-03-25T07:33:02.765Z,5.65
2019-03-25T07:35:36.727Z,5.71
2019-03-25T07:38:10.428Z,5.83
2019-03-25T07:40:44.382Z,5.86
2019-03-25T07:43:19.102Z,5.96
2019-03-25T07:45:52.736Z,6.08
2019-03-25T07:48:26.377Z,6.20
2019-03-25T07:51:00.682Z,6.26
2019-03-25T07:53:35.076Z,6.40
2019-03-25T07:56:08.654Z,6.51
2019-03-25T07:58:42.235Z,6.63
2019-03-25T08:01:15.922Z,6.71
2019-03-25T08:03:50.665Z,6.90
2019-03-25T08:06:24.319Z,7.06
2019-03-25T08:09:03.667Z,7.21
2019-03-25T08:11:33.581Z,7.28
2019-03-25T08:14:07.377Z,7.20
2019-03-25T08:16:41.485Z,7.15
2019-03-25T08:19:15.139Z,7.11
2019-03-25T08:21:48.976Z,7.06
2019-03-25T08:24:22.618Z,6.95
2019-03-25T08:26:56.248Z,6.94
2019-03-25T08:29:30.344Z,6.90
2019-03-25T08:32:05.045Z,6.95
2019-03-25T08:34:39.184Z,7.02
2019-03-25T08:37:12.916Z,7.17
2019-03-25T08:39:48.869Z,7.24
2019-03-25T08:42:22.594Z,7.45
2019-03-25T08:44:56.349Z,7.61
2019-03-25T08:47:30.043Z,7.67
2019-03-25T08:50:04.362Z,7.78
2019-03-25T08:52:39.734Z,7.82
2019-03-25T08:55:13.972Z,7.95
2019-03-25T08:57:49.107Z,8.15
2019-03-25T09:00:23.170Z,8.17
2019-03-25T09:02:58.220Z,8.11
2019-03-25T09:05:33.285Z,8.21
2019-03-25T09:08:07.047Z,8.36
2019-03-25T09:10:40.829Z,8.58
2019-03-25T09:13:15.511Z,8.73
2019-03-25T09:15:49.876Z,9.05
2019-03-25T09:18:24.953Z,9.12
2019-03-25T09:20:59.666Z,9.32
2019-03-25T09:23:34.793Z,9.46
2019-03-25T09:26:08.652Z,9.48
2019-03-25T09:28:42.343Z,9.60
2019-03-25T09:31:20.500Z,10.32
2019-03-25T09:33:55.826Z,10.68
2019-03-25T09:36:29.576Z,10.19
2019-03-25T09:39:04.997Z,10.51
2019-03-25T09:41:38.935Z,10.12
2019-03-25T09:44:12.690Z,9.74
2019-03-25T09:46:46.565Z,9.53
2019-03-25T09:49:21.778Z,9.34
2019-03-25T09:51:55.537Z,10.20
2019-03-25T09:54:29.661Z,10.45
2019-03-25T09:57:06.431Z,11.09
2019-03-25T09:59:40.278Z,11.08
2019-03-25T10:02:17.924Z,10.57
2019-03-25T10:04:53.172Z,10.91
2019-03-25T10:07:28.660Z,10.48
2019-03-25T10:10:02.324Z,10.33
2019-03-25T10:12:36.079Z,10.86
2019-03-25T10:15:10.488Z,10.71
2019-03-25T10:17:44.562Z,11.30
2019-03-25T10:20:20.105Z,11.84
2019-03-25T10:22:53.976Z,11.63
2019-03-25T10:25:27.790Z,11.74
2019-03-25T10:28:01.631Z,11.78
2019-03-25T10:30:35.276Z,11.19
2019-03-25T10:33:10.693Z,10.57
2019-03-25T10:35:47.536Z,10.47
2019-03-25T10:38:21.344Z,10.06
2019-03-25T10:40:55.354Z,9.79
2019-03-25T10:43:29.139Z,9.66
2019-03-25T10:46:03.081Z,9.70
2019-03-25T10:48:36.945Z,9.52
2019-03-25T10:51:10.651Z,9.25
2019-03-25T10:53:44.455Z,8.94
2019-03-25T10:56:18.156Z,8.82
2019-03-25T10:58:58.295Z,8.53
2019-03-25T11:01:31.196Z,8.37
2019-03-25T11:04:09.153Z,8.19
2019-03-25T11:06:42.833Z,8.11
2019-03-25T11:09:16.622Z,8.09
2019-03-25T11:11:50.418Z,8.01
2019-03-25T11:14:24.166Z,7.90
2019-03-25T11:16:57.957Z,7.87
2019-03-25T11:19:32.088Z,7.85
2019-03-25T11:22:05.912Z,7.69
2019-03-25T11:24:39.627Z,7.50
2019-03-25T11:27:13.357Z,7.30
2019-03-25T11:29:47.121Z,7.10
2019-03-25T11:32:20.744Z,6.94
2019-03-25T11:34:54.602Z,6.82
2019-03-25T11:37:28.430Z,6.62
2019-03-25T11:40:02.400Z,6.48
2019-03-25T11:42:36.109Z,6.47
2019-03-25T11:45:11.899Z,6.31
2019-03-25T11:47:46.047Z,6.22
2019-03-25T11:50:19.810Z,6.08
2019-03-25T11:52:55.614Z,5.92
2019-03-25T11:55:32.531Z,5.70
2019-03-25T11:58:06.774Z,5.49
2019-03-25T12:00:40.384Z,5.21
2019-03-25T12:03:14.100Z,5.13
2019-03-25T12:05:47.939Z,5.02
2019-03-25T12:08:23.323Z,4.98
2019-03-25T12:10:57.416Z,4.90
2019-03-25T12:13:32.250Z,4.89
2019-03-25T12:16:06.341Z,4.80
2019-03-25T12:18:40.159Z,4.82
2019-03-25T12:21:14.134Z,4.95
2019-03-25T12:23:49.436Z,5.21
2019-03-25T12:26:23.198Z,5.34
2019-03-25T12:28:57.027Z,5.38
2019-03-25T12:31:30.938Z,5.35
2019-03-25T12:34:04.939Z,5.34
2019-03-25T12:36:41.083Z,5.21
2019-03-25T12:39:15.409Z,5.06
2019-03-25T12:41:49.190Z,4.98
2019-03-25T12:44:22.860Z,4.97
2019-03-25T12:46:56.632Z,4.99
2019-03-25T12:49:30.656Z,5.10
2019-03-25T12:52:07.346Z,5.23
2019-03-25T12:54:42.097Z,5.39
2019-03-25T12:57:17.774Z,5.38
2019-03-25T12:59:51.544Z,5.44
2019-03-25T13:02:25.208Z,5.53
2019-03-25T13:04:58.921Z,5.66
2019-03-25T13:07:33.371Z,5.60
2019-03-25T13:10:07.973Z,5.55
2019-03-25T13:12:41.687Z,5.51
2019-03-25T13:15:15.610Z,5.43
2019-03-25T13:17:49.594Z,5.35
2019-03-25T13:23:26.043Z,5.45
2019-03-25T13:26:01.344Z,5.43
2019-03-25T13:28:36.746Z,5.19
2019-03-25T13:31:13.287Z,5.07
2019-03-25T13:33:47.380Z,5.06
2019-03-25T13:36:21.180Z,5.10
2019-03-25T13:38:58.019Z,4.99
2019-03-25T13:41:34.001Z,5.03
2019-03-25T13:44:11.203Z,5.10
2019-03-25T13:46:46.647Z,5.19
2019-03-25T13:49:21.758Z,5.27
2019-03-25T13:51:59.523Z,5.30
2019-03-25T13:54:33.441Z,5.33
2019-03-25T13:57:07.551Z,5.44
2019-03-25T13:59:43.769Z,5.40
2019-03-25T14:02:19.738Z,5.45
2019-03-25T14:05:10.327Z,5.47
2019-03-25T14:07:43.908Z,5.52
2019-03-25T14:10:17.662Z,5.55
2019-03-25T14:12:57.357Z,5.53
2019-03-25T14:15:33.247Z,5.55
2019-03-25T14:18:08.276Z,5.63
2019-03-25T14:20:42.356Z,5.66
2019-03-25T14:23:16.646Z,5.70
2019-03-25T14:25:50.711Z,5.73
2019-03-25T14:29:04.856Z,5.75
2019-03-25T14:32:18.698Z,5.80
2019-03-25T14:34:57.986Z,5.80
2019-03-25T14:37:45.065Z,5.84
2019-03-25T14:40:21.663Z,5.90
2019-03-25T14:43:17.165Z,5.98
2019-03-25T14:46:09.517Z,6.05
2019-03-25T14:48:56.530Z,6.17
2019-03-25T14:51:31.704Z,6.27
2019-03-25T14:54:06.646Z,6.38
2019-03-25T14:56:40.806Z,6.41
2019-03-25T14:59:15.798Z,6.46
2019-03-25T15:01:52.274Z,6.34
2019-03-25T15:04:32.973Z,5.80
2019-03-25T15:07:11.321Z,5.25
2019-03-25T15:09:50.506Z,4.71
2019-03-25T15:12:27.297Z,4.29
2019-03-25T15:15:05.828Z,4.22
2019-03-25T15:17:40.259Z,4.19
2019-03-25T15:20:20.631Z,4.14
2019-03-25T15:22:54.533Z,4.15
2019-03-25T15:25:29.867Z,4.26
2019-03-25T15:28:03.651Z,4.28
2019-03-25T15:30:39.512Z,4.31
2019-03-25T15:33:14.824Z,4.40
2019-03-25T15:35:50.969Z,4.42
2019-03-25T15:38:25.675Z,4.45
2019-03-25T15:40:59.800Z,4.47
2019-03-25T15:43:33.932Z,4.52
2019-03-25T15:46:08.089Z,4.55
2019-03-25T15:48:41.916Z,4.57
2019-03-25T15:51:28.064Z,4.57
2019-03-25T15:54:04.022Z,4.62
2019-03-25T15:56:45.544Z,4.66
2019-03-25T15:59:20.731Z,4.65
2019-03-25T16:02:03.449Z,4.69
2019-03-25T16:04:40.665Z,4.72
2019-03-25T16:07:24.861Z,4.75
2019-03-25T16:10:11.006Z,4.75
2019-03-25T16:12:46.510Z,4.70
2019-03-25T16:15:45.639Z,4.70
2019-03-25T16:18:39.528Z,4.71
2019-03-25T16:21:13.809Z,4.73
2019-03-25T16:23:47.948Z,4.77
2019-03-25T16:26:21.718Z,4.79
2019-03-25T16:28:55.390Z,4.78
2019-03-25T16:31:29.012Z,4.77
2019-03-25T16:34:02.747Z,4.81
2019-03-25T16:36:36.927Z,4.85
2019-03-25T16:39:11.611Z,4.84
2019-03-25T16:41:45.302Z,4.83
2019-03-25T16:44:19.549Z,4.78
2019-03-25T16:46:53.218Z,4.78
2019-03-25T16:49:27.955Z,4.78
2019-03-25T16:52:01.679Z,4.77
2019-03-25T16:54:36.332Z,4.76
2019-03-25T16:57:11.222Z,4.75
2019-03-25T16:59:44.868Z,4.72
2019-03-25T17:02:19.045Z,4.69
2019-03-25T17:04:52.637Z,4.65
2019-03-25T17:07:26.273Z,4.68
2019-03-25T17:10:01.410Z,4.67
2019-03-25T17:12:36.852Z,4.70
2019-03-25T17:15:10.859Z,4.72
2019-03-25T17:17:45.514Z,4.74
2019-03-25T17:20:24.655Z,4.72
2019-03-25T17:22:58.417Z,4.74
2019-03-25T17:25:32.146Z,4.75
2019-03-25T17:28:10.049Z,4.78
2019-03-25T17:30:43.678Z,4.80
2019-03-25T17:33:17.705Z,4.85
2019-03-25T17:35:51.479Z,4.90
2019-03-25T17:38:27.530Z,4.93
2019-03-25T17:41:03.833Z,4.95
2019-03-25T17:43:37.838Z,4.98
2019-03-25T17:46:13.792Z,4.98
2019-03-25T17:48:47.509Z,5.00
2019-03-25T17:51:21.116Z,4.99
2019-03-25T17:53:54.841Z,5.03
2019-03-25T17:56:28.522Z,5.03
2019-03-25T17:59:02.272Z,5.02
2019-03-25T18:01:37.583Z,5.02
2019-03-25T18:04:11.365Z,5.04
2019-03-25T18:06:45.293Z,5.01
2019-03-25T18:09:19.115Z,5.00
2019-03-25T18:11:54.713Z,4.99
2019-03-25T18:14:31.178Z,4.99
2019-03-25T18:17:08.360Z,4.96
2019-03-25T18:19:42.266Z,4.97
2019-03-25T18:22:24.047Z,4.99
2019-03-25T18:25:11.327Z,5.00
2019-03-25T18:27:51.899Z,4.99
2019-03-25T18:30:36.305Z,5.00
2019-03-25T18:33:19.471Z,4.95
2019-03-25T18:35:55.283Z,4.93
2019-03-25T18:38:30.483Z,4.95
2019-03-25T18:41:04.635Z,4.94
2019-03-25T18:43:44.691Z,4.98
2019-03-25T18:46:18.764Z,5.01
2019-03-25T18:48:53.944Z,5.02
2019-03-25T18:51:28.298Z,5.04
2019-03-25T18:54:06.406Z,5.03
2019-03-25T18:56:40.478Z,5.01
2019-03-25T18:59:14.501Z,5.03
2019-03-25T19:01:54.440Z,4.97
2019-03-25T19:04:27.222Z,4.94
2019-03-25T19:07:01.766Z,4.88
2019-03-25T19:09:36.315Z,4.82
2019-03-25T19:12:10.515Z,4.78
2019-03-25T19:14:44.428Z,4.75
2019-03-25T19:17:18.681Z,4.70
2019-03-25T19:19:52.470Z,4.70
2019-03-25T19:22:26.153Z,4.71
2019-03-25T19:24:59.845Z,4.69
2019-03-25T19:27:33.664Z,4.66
2019-03-25T19:30:08.599Z,4.64
2019-03-25T19:32:42.384Z,4.63
2019-03-25T19:35:17.025Z,4.56
2019-03-25T19:37:50.835Z,4.51
2019-03-25T19:40:24.658Z,4.47
2019-03-25T19:42:58.973Z,4.41
2019-03-25T19:45:32.728Z,4.36
2019-03-25T19:48:06.950Z,4.35
2019-03-25T19:50:40.948Z,4.28
2019-03-25T19:53:19.324Z,4.26
2019-03-25T19:55:50.821Z,4.21
2019-03-25T19:58:24.929Z,4.18
2019-03-25T20:01:01.435Z,4.16
2019-03-25T20:03:35.445Z,4.17
2019-03-25T20:06:11.306Z,4.16
2019-03-25T20:08:51.520Z,4.14
2019-03-25T20:11:26.126Z,4.10
2019-03-25T20:14:00.104Z,4.06
2019-03-25T20:16:34.091Z,4.05
2019-03-25T20:19:08.140Z,4.02
2019-03-25T20:21:50.913Z,3.99
2019-03-25T20:24:24.958Z,3.97
2019-03-25T20:26:58.689Z,4.01
2019-03-25T20:29:32.924Z,4.02
2019-03-25T20:32:06.857Z,4.03
2019-03-25T20:34:40.758Z,4.05
2019-03-25T20:37:17.460Z,4.07
2019-03-25T20:39:51.510Z,4.09
2019-03-25T20:42:27.856Z,4.10
2019-03-25T20:45:01.765Z,4.16
2019-03-25T20:47:38.912Z,4.17
2019-03-25T20:50:13.653Z,4.14
2019-03-25T20:52:47.539Z,4.16
2019-03-25T20:55:21.737Z,4.15
2019-03-25T20:57:55.605Z,4.13
2019-03-25T21:00:56.980Z,4.09
2019-03-25T21:03:32.555Z,4.07
2019-03-25T21:06:06.936Z,4.03
2019-03-25T21:08:41.392Z,4.02
2019-03-25T21:11:15.628Z,4.00
2019-03-25T21:13:49.529Z,3.99
2019-03-25T21:16:23.542Z,3.96
2019-03-25T21:18:57.415Z,3.94
2019-03-25T21:21:32.347Z,3.93
2019-03-25T21:24:06.041Z,3.93
2019-03-25T21:26:40.817Z,3.90
2019-03-25T21:29:14.502Z,3.87
2019-03-25T21:31:48.200Z,3.85
2019-03-25T21:34:22.070Z,3.83
2019-03-25T21:36:55.878Z,3.78
2019-03-25T21:39:29.805Z,3.75
2019-03-25T21:42:03.932Z,3.67
2019-03-25T21:44:37.798Z,3.67
2019-03-25T21:47:11.582Z,3.64
2019-03-25T21:49:45.418Z,3.63
2019-03-25T21:52:19.287Z,3.61
2019-03-25T21:54:52.939Z,3.58
2019-03-25T21:57:27.759Z,3.55
2019-03-25T22:00:02.230Z,3.52
2019-03-25T22:02:36.981Z,3.51
2019-03-25T22:05:11.480Z,3.46
2019-03-25T22:07:46.472Z,3.41
2019-03-25T22:10:20.496Z,3.37
2019-03-25T22:12:57.027Z,3.34
2019-03-25T22:15:30.662Z,3.27
2019-03-25T22:18:05.125Z,3.21
2019-03-25T22:20:42.679Z,3.19
2019-03-25T22:23:17.881Z,3.16
2019-03-25T22:25:53.371Z,3.11
2019-03-25T22:28:27.353Z,3.08
2019-03-25T22:31:06.215Z,3.04
2019-03-25T22:33:41.631Z,3.01
2019-03-25T22:36:15.459Z,3.00
2019-03-25T22:38:49.119Z,2.97
2019-03-25T22:41:22.819Z,2.95
2019-03-25T22:43:56.473Z,2.91
2019-03-25T22:46:30.072Z,2.88
2019-03-25T22:49:03.976Z,2.83
2019-03-25T22:51:37.605Z,2.80
2019-03-25T22:54:11.415Z,2.76
2019-03-25T22:56:45.184Z,2.72
2019-03-25T22:59:18.834Z,2.73
2019-03-25T23:01:52.543Z,2.66
2019-03-25T23:04:26.367Z,2.66
2019-03-25T23:07:00.062Z,2.64
2019-03-25T23:09:33.928Z,2.58
2019-03-25T23:12:09.172Z,2.56
2019-03-25T23:14:42.989Z,2.48
2019-03-25T23:17:16.726Z,2.45
2019-03-25T23:19:50.340Z,2.45
2019-03-25T23:22:23.976Z,2.39
2019-03-25T23:24:57.844Z,2.34
2019-03-25T23:27:31.435Z,2.31
2019-03-25T23:30:05.567Z,2.30
2019-03-25T23:32:39.291Z,2.27
2019-03-25T23:35:12.963Z,2.22
2019-03-25T23:37:46.598Z,2.20
2019-03-25T23:40:20.331Z,2.16
2019-03-25T23:42:54.064Z,2.13
2019-03-25T23:45:28.841Z,2.15
2019-03-25T23:48:02.638Z,2.18
2019-03-25T23:50:36.489Z,2.15
2019-03-25T23:53:10.206Z,2.12
2019-03-25T23:55:43.899Z,2.12
2019-03-25T23:58:17.509Z,2.15
